METAR Data
IDs: Format: Raw Decoded Include TAF

Data at: 0425 UTC 26 Sep 2018

KSTP 260353Z AUTO 00000KT 10SM CLR 09/07 A3002 RMK AO2 SLP167 T00890067
KSTP 260253Z AUTO 23003KT 10SM CLR 08/07 A3002 RMK AO2 SLP168 T00830067 51015
KSTP 260153Z 31006KT 10SM CLR 10/07 A3002 RMK AO2 SLP166 T01000067
KSTP 260100Z 28008KT 10SM BKN043 BKN049 OVC055 12/07 A3000 RMK AO2 T01170067
KSTP 260053Z 28008KT 10SM BKN024 BKN029 OVC036 12/07 A3000 RMK AO2 SLP160 T01170067
KSTP 252353Z 32007KT 10SM BKN026 BKN032 OVC043 12/07 A2998 RMK AO2 SLP152 60000 T01170067 10128 20100 53006
KSTP 252313Z 31005KT 10SM BKN028 OVC037 12/07 A2997 RMK AO2 T01170067
KSTP 252253Z 33009KT 10SM BKN036 12/07 A2996 RMK AO2 SLP147 T01170067
KSTP 252153Z AUTO 31014KT 10SM FEW025 SCT030 BKN085 12/07 A2996 RMK AO2 SLP143 T01170067
KSTP 252102Z 33009KT 10SM FEW019 BKN030 OVC070 11/08 A2996 RMK AO2 T01110078
KSTP 252053Z 31009KT 10SM SCT018 BKN029 OVC034 11/08 A2996 RMK AO2 RAB1958E24 SLP146 P0000 60000 T01110078 51007
KSTP 251953Z 32012KT 10SM SCT016 BKN022 OVC030 11/08 A2995 RMK AO2 SLP143 T01060078
KSTP 251932Z 32009KT 10SM SCT017 BKN023 OVC031 11/08 A2994 RMK AO2 T01060083
KSTP 251853Z 33011KT 10SM OVC013 11/09 A2995 RMK AO2 RAB05E26 SLP142 P0000 T01060089
KSTP 251825Z 34010KT 10SM -RA OVC014 11/08 A2994 RMK AO2 RAB05 P0000 T01060083
KSTP 251753Z 35007KT 10SM OVC016 11/09 A2994 RMK AO2 RAE33 SLP139 P0003 60005 T01110089 10117 20106 58002
KSTP 251718Z 32008KT 4SM -RA BR BKN013 OVC021 11/09 A2995 RMK AO2 P0003 T01060089
KSTP 251653Z 32005KT 4SM RA BR OVC015 11/09 A2996 RMK AO2 RAB15E26B46 SLP144 P0002 T01110089
KSTP 251553Z 32008KT 10SM OVC012 11/09 A2996 RMK AO2 SLP145 T01110089
KSTP 251453Z 31009KT 10SM OVC013 11/09 A2995 RMK AO2 SLP139 T01110089 53009
KSTP 251353Z 32009KT 10SM OVC010 11/09 A2994 RMK AO2 SLP136 T01110094
KSTP 251253Z 35008KT 10SM OVC011 12/09 A2990 RMK AO2 CIG 009V014 SLP123 T01170094
KSTP 251153Z 33007KT 10SM OVC010 11/09 A2992 RMK AO2 SLP130 60001 70028 T01110094 10144 20111 50003
KSTP 251145Z 33007KT 10SM OVC010 12/09 A2992 RMK AO2 CIG 008V013 T01170094
KSTP 251053Z 31010KT 10SM OVC008 11/10 A2992 RMK AO2 SLP130 T01110100
KSTP 250953Z AUTO 31011KT 10SM OVC008 11/10 A2992 RMK AO2 SLP128 T01110100
KSTP 250914Z AUTO 33008KT 10SM OVC009 12/11 A2991 RMK AO2 T01220106
KSTP 250853Z AUTO 30008KT 10SM BKN010 OVC037 12/11 A2991 RMK AO2 SLP125 60001 T01220106 50007
KSTP 250850Z AUTO 31009KT 10SM BKN010 OVC037 12/11 A2991 RMK AO2
KSTP 250804Z AUTO 31009KT 10SM FEW013 SCT024 OVC033 13/12 A2990 RMK AO2 T01330117
KSTP 250753Z AUTO 31010KT 10SM FEW013 BKN022 OVC033 13/12 A2990 RMK AO2 RAE15 SLP121 P0000 T01330117
KSTP 250730Z AUTO 32008KT 10SM SCT008 BKN015 OVC020 13/12 A2989 RMK AO2 RAE15 P0000 T01330122
KSTP 250708Z AUTO 31010KT 5SM -RA BR BKN008 OVC013 14/13 A2990 RMK AO2 CIG 006V011 P0000 T01390128
KSTP 250653Z AUTO 34005KT 4SM -RA BR BKN011 OVC021 14/13 A2989 RMK AO2 RAB47 SLP118 P0001 T01390128
KSTP 250553Z AUTO 33007KT 10SM BKN021 OVC070 14/13 A2988 RMK AO2 SLP115 60027 T01440128 10211 20144 402390128 51009
KSTP 250514Z AUTO 34009KT 10SM SCT029 OVC055 14/13 A2987 RMK AO2 T01440133
KSTP 250453Z AUTO 34007KT 10SM FEW010 SCT022 OVC029 15/13 A2987 RMK AO2 RAE11 SLP111 P0000 T01500133
KSTP 250426Z AUTO 34009KT 10SM SCT009 BKN015 OVC022 15/13 A2986 RMK AO2 RAE11 P0000 T01500133
KSTP 250410Z AUTO 34006KT 10SM -RA BKN009 OVC015 16/14 A2986 RMK AO2 P0000 T01560139
KSTP 250353Z AUTO 34004KT 8SM -RA SCT009 BKN015 OVC047 16/14 A2985 RMK AO2 LTG DSNT NE RAB07 SLP105 P0027 T01560139
KSTP 250343Z AUTO 31004KT 8SM -RA SCT009 BKN015 OVC040 15/14 A2985 RMK AO2 LTG DSNT NE AND E RAB07 P0026 T01500139
KSTP 250330Z AUTO 00000KT 3SM RA BR FEW010 OVC040 16/14 A2984 RMK AO2 LTG DSNT NE RAB07 P0026 T01560139
KSTP 250320Z AUTO 34005KT 1 1/2SM +RA BR BKN033 OVC040 16/14 A2984 RMK AO2 LTG DSNT NE RAB07 P0021 T01560139
KSTP 250312Z AUTO 34008G18KT 2 1/2SM +RA BKN034 OVC046 16/13 A2984 RMK AO2 RAB07 P0010 T01610133
KSTP 250253Z 34009KT 10SM VCTS FEW019 OVC048 17/13 A2983 RMK AO2 SLP098 T01720128 51021
KSTP 250153Z 32007KT 10SM FEW110 18/14 A2981 RMK AO2 SLP093 T01780139
KSTP 250053Z 32010KT 10SM BKN055 BKN070 OVC080 19/14 A2979 RMK AO2 WSHFT 0026 SLP085 T01940144
KSTP 250046Z 33014KT 10SM BKN055 BKN070 OVC080 20/14 A2979 RMK AO2 WSHFT 0026 T02000144
KSTP 242353Z 17004KT 10SM SCT090 21/15 A2977 RMK AO2 SLP078 60000 T02060150 10239 20206 58011
KSTP 242253Z 17004KT 10SM FEW065 OVC080 23/16 A2978 RMK AO2 SLP082 T02280161
KSTP 242153Z 19008KT 10SM SCT070 23/15 A2979 RMK AO2 SLP084 T02330150
KSTP 242053Z 20007KT 10SM SCT060 24/14 A2980 RMK AO2 SLP087 60000 T02390144 56019
KSTP 241953Z 20009KT 10SM BKN050 24/15 A2981 RMK AO2 SLP091 T02390150
KSTP 241853Z 20017G24KT 10SM BKN048 23/14 A2983 RMK AO2 PK WND 18026/1816 RAB27E51 SLP097 P0000 T02280139
KSTP 241753Z 20012G18KT 10SM OVC044 23/15 A2986 RMK AO2 SLP106 T02280150 10228 20128 58022
KSTP 241653Z 17010KT 10SM FEW039 21/13 A2990 RMK AO2 SLP121 T02110133